Time;durP1;ratioP1;P1;durP2;ratioP2;P2;SDS_P1;SDS_P2;PMS_P1;PMS_P2;Temp;Humidity;BMP_temperature;BMP_pressure;BME280_temperature;BME280_humidity;BME280_pressure;Samples;Min_cycle;Max_cycle;Signal;HPM_P1;HPM_P2
2022/06/13 00:02:11;;;;;;;4.57;3.35;;;;;;;;;;5062346;28;20033;-60
2022/06/13 00:04:37;;;;;;;5.90;3.10;;;;;;;;;;5061895;28;20400;-61
2022/06/13 00:07:06;;;;;;;4.28;3.28;;;;;;;;;;5064926;28;20038;-61
2022/06/13 00:09:32;;;;;;;6.87;3.70;;;;;;;;;;5064960;28;20029;-61
2022/06/13 00:12:00;;;;;;;4.55;3.40;;;;;;;;;;5072519;28;20074;-61
2022/06/13 00:14:25;;;;;;;5.05;3.42;;;;;;;;;;5072344;28;20066;-59
2022/06/13 00:16:51;;;;;;;4.47;3.42;;;;;;;;;;5072514;28;20037;-61
2022/06/13 00:19:16;;;;;;;7.78;3.60;;;;;;;;;;5073038;28;20028;-60
2022/06/13 00:21:41;;;;;;;6.18;4.40;;;;;;;;;;5070633;28;20044;-60
2022/06/13 00:24:11;;;;;;;5.57;3.30;;;;;;;;;;5066346;28;20038;-60
2022/06/13 00:26:37;;;;;;;5.30;3.85;;;;;;;;;;5070833;28;20028;-60
2022/06/13 00:29:03;;;;;;;5.60;3.72;;;;;;;;;;5073162;28;20028;-60
2022/06/13 00:31:29;;;;;;;6.28;4.28;;;;;;;;;;5068170;28;20037;-61
2022/06/13 00:33:55;;;;;;;7.03;3.88;;;;;;;;;;5069417;28;20598;-59
2022/06/13 00:36:23;;;;;;;7.63;3.53;;;;;;;;;;5069163;28;20104;-60
2022/06/13 00:38:50;;;;;;;5.33;3.67;;;;;;;;;;5069507;28;20021;-60
2022/06/13 00:41:37;;;;;;;6.80;4.05;;;;;;;;;;5064794;28;20291;-59
2022/06/13 00:44:26;;;;;;;5.32;3.70;;;;;;;;;;5061454;28;20020;-60
2022/06/13 00:46:52;;;;;;;4.60;3.70;;;;;;;;;;5068133;28;20510;-60
2022/06/13 00:49:27;;;;;;;5.40;3.35;;;;;;;;;;5063690;28;20033;-60
2022/06/13 00:52:05;;;;;;;5.30;3.40;;;;;;;;;;5070448;28;20026;-60
2022/06/13 00:54:33;;;;;;;6.55;3.90;;;;;;;;;;5066230;28;20024;-60
2022/06/13 00:57:03;;;;;;;4.32;3.55;;;;;;;;;;5062852;28;20029;-60
2022/06/13 00:59:33;;;;;;;5.88;3.58;;;;;;;;;;5062904;28;20128;-60
2022/06/13 01:01:59;;;;;;;5.07;3.28;;;;;;;;;;5063900;28;20104;-59
2022/06/13 01:04:24;;;;;;;5.65;3.50;;;;;;;;;;5064325;28;20021;-60
2022/06/13 01:06:51;;;;;;;4.22;3.42;;;;;;;;;;5060593;28;20089;-60
2022/06/13 01:09:19;;;;;;;7.07;3.30;;;;;;;;;;5068009;28;20392;-59
2022/06/13 01:11:50;;;;;;;4.57;3.35;;;;;;;;;;5071633;28;20025;-60
2022/06/13 01:14:26;;;;;;;4.18;3.00;;;;;;;;;;5072130;28;20395;-60
2022/06/13 01:17:24;;;;;;;5.35;3.20;;;;;;;;;;5064373;28;20031;-59
2022/06/13 01:20:05;;;;;;;3.13;2.80;;;;;;;;;;5064611;28;20556;-59
2022/06/13 01:23:04;;;;;;;5.07;3.05;;;;;;;;;;5066477;28;20121;-60
2022/06/13 01:25:56;;;;;;;5.95;2.90;;;;;;;;;;5068472;28;20032;-59
2022/06/13 01:28:40;;;;;;;3.53;2.90;;;;;;;;;;5068173;28;20426;-59
2022/06/13 01:31:29;;;;;;;5.93;3.65;;;;;;;;;;5062314;28;20067;-60
2022/06/13 01:34:28;;;;;;;5.93;3.23;;;;;;;;;;5068769;28;20032;-61
2022/06/13 01:37:00;;;;;;;5.38;3.20;;;;;;;;;;5059379;28;20442;-59
2022/06/13 01:39:58;;;;;;;3.88;3.40;;;;;;;;;;5064239;28;20057;-58
2022/06/13 01:42:29;;;;;;;6.03;3.70;;;;;;;;;;5062825;28;20127;-58
2022/06/13 01:45:13;;;;;;;6.03;3.58;;;;;;;;;;5058703;28;20494;-59
2022/06/13 01:48:06;;;;;;;4.13;3.50;;;;;;;;;;5065087;28;20033;-59
2022/06/13 01:50:44;;;;;;;4.78;3.70;;;;;;;;;;5062641;28;20033;-58
2022/06/13 01:53:25;;;;;;;6.30;3.85;;;;;;;;;;5065607;28;20024;-58
2022/06/13 01:56:00;;;;;;;4.57;4.13;;;;;;;;;;5063588;28;20031;-57
2022/06/13 01:58:34;;;;;;;6.30;4.38;;;;;;;;;;5061219;28;20029;-60
2022/06/13 02:01:09;;;;;;;5.05;3.78;;;;;;;;;;5063606;28;20455;-59
2022/06/13 02:03:48;;;;;;;4.30;3.90;;;;;;;;;;5062467;28;20479;-59
2022/06/13 02:06:24;;;;;;;5.07;3.80;;;;;;;;;;5060442;28;20028;-59
2022/06/13 02:09:03;;;;;;;5.40;3.60;;;;;;;;;;5071323;28;20372;-61
2022/06/13 02:11:52;;;;;;;5.53;3.53;;;;;;;;;;5070803;28;20055;-62
2022/06/13 02:14:26;;;;;;;5.32;3.65;;;;;;;;;;5070214;28;20024;-59
2022/06/13 02:16:57;;;;;;;5.25;4.00;;;;;;;;;;5070232;28;20032;-60
2022/06/13 02:19:34;;;;;;;4.43;3.60;;;;;;;;;;5069293;28;20123;-60
2022/06/13 02:22:09;;;;;;;5.80;4.20;;;;;;;;;;5059206;28;20442;-59
2022/06/13 02:24:41;;;;;;;4.63;4.22;;;;;;;;;;5068289;28;20062;-60
2022/06/13 02:27:10;;;;;;;4.97;4.47;;;;;;;;;;5069370;28;20056;-59
2022/06/13 02:29:45;;;;;;;5.20;4.68;;;;;;;;;;5066447;28;20029;-59
2022/06/13 02:32:39;;;;;;;6.25;4.70;;;;;;;;;;5067276;28;20065;-60
2022/06/13 02:35:14;;;;;;;6.72;4.63;;;;;;;;;;5063701;28;20042;-60
2022/06/13 02:37:55;;;;;;;8.18;5.10;;;;;;;;;;5065254;28;20082;-61
2022/06/13 02:40:22;;;;;;;6.55;5.05;;;;;;;;;;5066004;28;20039;-60
2022/06/13 02:43:12;;;;;;;9.75;6.55;;;;;;;;;;5065852;28;20029;-60
2022/06/13 02:45:51;;;;;;;8.60;4.88;;;;;;;;;;5063107;28;20021;-60
2022/06/13 02:48:20;;;;;;;7.88;4.90;;;;;;;;;;5064967;28;20032;-60
2022/06/13 02:51:03;;;;;;;6.88;5.50;;;;;;;;;;5063031;28;20550;-59
2022/06/13 02:53:47;;;;;;;8.02;5.28;;;;;;;;;;5054637;28;20032;-60
2022/06/13 02:56:31;;;;;;;7.60;5.60;;;;;;;;;;5063405;28;20103;-59
2022/06/13 02:59:03;;;;;;;9.35;5.82;;;;;;;;;;5061202;28;20031;-60
2022/06/13 03:01:37;;;;;;;8.90;6.53;;;;;;;;;;5058321;28;20032;-59
2022/06/13 03:04:17;;;;;;;8.02;5.45;;;;;;;;;;5062084;28;20032;-59
2022/06/13 03:06:48;;;;;;;7.72;5.10;;;;;;;;;;5062356;28;20031;-59
2022/06/13 03:09:51;;;;;;;8.60;5.28;;;;;;;;;;5070126;28;20027;-59
2022/06/13 03:12:27;;;;;;;6.90;4.93;;;;;;;;;;5069465;28;20449;-59
2022/06/13 03:15:03;;;;;;;6.07;4.68;;;;;;;;;;5061347;28;20033;-60
2022/06/13 03:17:43;;;;;;;6.72;5.03;;;;;;;;;;5068808;28;20037;-61
2022/06/13 03:20:30;;;;;;;7.07;5.10;;;;;;;;;;5068818;28;20394;-59
2022/06/13 03:23:05;;;;;;;7.47;4.90;;;;;;;;;;5059877;28;20030;-60
2022/06/13 03:25:52;;;;;;;7.80;5.18;;;;;;;;;;5067192;28;20032;-60
2022/06/13 03:28:38;;;;;;;6.63;4.78;;;;;;;;;;5065677;28;20028;-59
2022/06/13 03:31:08;;;;;;;5.70;4.93;;;;;;;;;;5059673;28;20472;-59
2022/06/13 03:33:42;;;;;;;6.47;4.93;;;;;;;;;;5066260;28;20024;-60
2022/06/13 03:36:22;;;;;;;7.30;5.63;;;;;;;;;;5064284;28;20024;-60
2022/06/13 03:39:24;;;;;;;9.20;6.05;;;;;;;;;;5065089;28;20028;-60
2022/06/13 03:41:53;;;;;;;7.22;5.88;;;;;;;;;;5065022;28;20035;-60
2022/06/13 03:44:28;;;;;;;6.47;5.88;;;;;;;;;;5060305;28;20037;-61
2022/06/13 03:46:58;;;;;;;6.18;5.20;;;;;;;;;;5061064;28;20029;-59
2022/06/13 03:49:32;;;;;;;6.75;5.75;;;;;;;;;;5064611;28;20021;-59
2022/06/13 03:52:01;;;;;;;9.68;5.60;;;;;;;;;;5058897;28;20171;-59
2022/06/13 03:54:34;;;;;;;7.43;6.15;;;;;;;;;;5059478;28;20048;-60
2022/06/13 03:57:30;;;;;;;7.10;5.43;;;;;;;;;;5062985;28;20040;-61
2022/06/13 04:00:05;;;;;;;5.60;4.95;;;;;;;;;;5058201;28;20083;-60
2022/06/13 04:02:33;;;;;;;6.78;5.25;;;;;;;;;;5057979;28;20414;-61
2022/06/13 04:04:59;;;;;;;6.75;5.55;;;;;;;;;;5061069;28;20348;-59
2022/06/13 04:07:29;;;;;;;11.30;6.10;;;;;;;;;;5066332;28;20029;-59
2022/06/13 04:10:03;;;;;;;8.02;5.57;;;;;;;;;;5061528;28;20047;-59
2022/06/13 04:12:40;;;;;;;8.15;5.68;;;;;;;;;;5068052;28;20034;-59
2022/06/13 04:15:33;;;;;;;7.70;5.40;;;;;;;;;;5068200;28;20040;-59
2022/06/13 04:18:23;;;;;;;7.30;5.40;;;;;;;;;;5061018;28;20029;-60
2022/06/13 04:20:51;;;;;;;8.27;5.43;;;;;;;;;;5066490;28;20048;-60
2022/06/13 04:23:46;;;;;;;8.73;5.85;;;;;;;;;;5066758;28;20032;-59
2022/06/13 04:26:17;;;;;;;8.50;5.55;;;;;;;;;;5058868;28;20037;-59
2022/06/13 04:29:00;;;;;;;7.50;6.22;;;;;;;;;;5066249;28;20072;-60
2022/06/13 04:31:30;;;;;;;7.95;5.60;;;;;;;;;;5062057;28;20365;-59
2022/06/13 04:34:00;;;;;;;;;;;;;;;;;;5065878;28;20025;-58
2022/06/13 04:36:27;;;;;;;9.98;5.32;;;;;;;;;;5066228;28;19954;-59
2022/06/13 04:38:55;;;;;;;10.93;5.15;;;;;;;;;;5067618;28;20024;-59
2022/06/13 04:41:24;;;;;;;8.25;5.60;;;;;;;;;;5060718;28;20116;-58
2022/06/13 04:43:54;;;;;;;11.00;5.78;;;;;;;;;;5055920;28;20059;-58
2022/06/13 04:46:23;;;;;;;9.85;6.00;;;;;;;;;;5066584;28;20103;-59
2022/06/13 04:48:52;;;;;;;12.93;6.15;;;;;;;;;;5067062;28;20403;-60
2022/06/13 04:51:28;;;;;;;10.40;5.93;;;;;;;;;;5060666;28;20334;-59
2022/06/13 04:54:04;;;;;;;9.07;5.18;;;;;;;;;;5058034;28;20455;-59
2022/06/13 04:56:30;;;;;;;11.90;5.10;;;;;;;;;;5066554;28;20179;-60
2022/06/13 04:58:57;;;;;;;9.93;4.85;;;;;;;;;;5065122;28;20397;-59
2022/06/13 05:01:25;;;;;;;9.52;4.75;;;;;;;;;;5063961;28;20029;-60
2022/06/13 05:03:52;;;;;;;9.90;5.20;;;;;;;;;;5057109;28;20032;-57
2022/06/13 05:06:39;;;;;;;9.13;5.57;;;;;;;;;;5072604;28;20028;-58
2022/06/13 05:09:14;;;;;;;10.43;5.38;;;;;;;;;;5066023;28;20075;-58
2022/06/13 05:12:18;;;;;;;8.73;4.97;;;;;;;;;;5070804;28;20028;-59
2022/06/13 05:14:52;;;;;;;8.23;5.07;;;;;;;;;;5069738;28;20064;-59
2022/06/13 05:17:54;;;;;;;9.77;4.93;;;;;;;;;;5071039;28;20024;-59
2022/06/13 05:20:57;;;;;;;15.73;5.00;;;;;;;;;;5069178;28;20025;-59
2022/06/13 05:24:06;;;;;;;10.27;5.53;;;;;;;;;;5066673;28;20094;-59
2022/06/13 05:26:31;;;;;;;14.05;5.57;;;;;;;;;;5065161;28;20045;-59
2022/06/13 05:28:59;;;;;;;12.00;4.90;;;;;;;;;;5070688;28;20115;-59
2022/06/13 05:31:25;;;;;;;9.15;4.28;;;;;;;;;;5066565;28;20020;-60
2022/06/13 05:33:52;;;;;;;15.45;4.45;;;;;;;;;;5068545;28;20387;-59
2022/06/13 05:36:20;;;;;;;14.38;5.22;;;;;;;;;;5063043;28;20074;-59
2022/06/13 05:38:55;;;;;;;11.20;5.07;;;;;;;;;;5066801;28;20028;-59
2022/06/13 05:41:20;;;;;;;12.18;5.35;;;;;;;;;;5066268;28;20036;-58
2022/06/13 05:43:46;;;;;;;15.38;4.78;;;;;;;;;;5066715;28;20077;-58
2022/06/13 05:46:25;;;;;;;12.90;5.53;;;;;;;;;;5062456;28;20112;-59
2022/06/13 05:48:51;;;;;;;10.35;5.95;;;;;;;;;;5058339;28;20063;-60
2022/06/13 05:51:16;;;;;;;11.93;5.38;;;;;;;;;;5066875;28;20025;-59
2022/06/13 05:53:42;;;;;;;12.23;5.03;;;;;;;;;;5063795;28;20091;-58
2022/06/13 05:56:10;;;;;;;14.38;5.65;;;;;;;;;;5059913;28;20103;-58
2022/06/13 05:58:36;;;;;;;16.75;5.53;;;;;;;;;;5061170;28;20053;-59
2022/06/13 06:01:02;;;;;;;11.27;5.80;;;;;;;;;;5065532;28;20197;-59
2022/06/13 06:03:28;;;;;;;14.85;5.70;;;;;;;;;;5063835;28;20051;-59
2022/06/13 06:05:55;;;;;;;10.77;4.78;;;;;;;;;;5070382;28;20499;-59
2022/06/13 06:08:24;;;;;;;11.43;5.00;;;;;;;;;;5070933;28;20024;-58
2022/06/13 06:10:52;;;;;;;12.95;5.00;;;;;;;;;;5069525;28;20503;-59
2022/06/13 06:13:18;;;;;;;11.43;5.17;;;;;;;;;;5070695;28;20044;-58
2022/06/13 06:15:46;;;;;;;12.73;5.05;;;;;;;;;;5067565;28;20017;-58
2022/06/13 06:18:12;;;;;;;13.70;6.40;;;;;;;;;;5071477;28;20043;-59
2022/06/13 06:20:39;;;;;;;13.07;5.03;;;;;;;;;;5068228;28;20063;-60
2022/06/13 06:23:04;;;;;;;14.77;5.47;;;;;;;;;;5069189;28;20032;-59
2022/06/13 06:25:31;;;;;;;11.23;4.82;;;;;;;;;;5065130;28;20086;-60
2022/06/13 06:27:57;;;;;;;12.23;4.78;;;;;;;;;;5067803;28;20078;-59
2022/06/13 06:30:22;;;;;;;11.07;5.55;;;;;;;;;;5067300;28;20020;-60
2022/06/13 06:32:48;;;;;;;15.02;5.78;;;;;;;;;;5066390;28;20027;-59
2022/06/13 06:35:14;;;;;;;10.70;5.00;;;;;;;;;;5062073;28;20493;-59
2022/06/13 06:37:45;;;;;;;9.77;5.40;;;;;;;;;;5064204;28;20548;-59
2022/06/13 06:40:13;;;;;;;14.05;5.63;;;;;;;;;;5065841;28;20020;-59
2022/06/13 06:42:38;;;;;;;12.82;4.68;;;;;;;;;;5064781;28;20024;-60
2022/06/13 06:45:04;;;;;;;18.25;5.78;;;;;;;;;;5062363;28;20025;-59
2022/06/13 06:47:30;;;;;;;14.25;5.13;;;;;;;;;;5061910;28;20044;-59
2022/06/13 06:49:55;;;;;;;10.55;5.55;;;;;;;;;;5064179;28;20402;-60
2022/06/13 06:52:20;;;;;;;14.20;5.15;;;;;;;;;;5063048;28;20157;-59
2022/06/13 07:00:14;;;;;;;13.27;6.32;;;;;;;;;;5062457;28;20034;-60
2022/06/13 07:02:39;;;;;;;10.55;5.50;;;;;;;;;;5061814;28;20024;-59
2022/06/13 07:05:07;;;;;;;12.32;5.53;;;;;;;;;;5069134;28;20111;-59
2022/06/13 07:07:33;;;;;;;11.73;5.82;;;;;;;;;;5068064;28;20028;-59
2022/06/13 07:09:58;;;;;;;12.65;5.75;;;;;;;;;;5069443;28;20416;-59
2022/06/13 07:12:24;;;;;;;16.52;6.00;;;;;;;;;;5068096;28;20079;-59
2022/06/13 07:14:50;;;;;;;19.10;7.07;;;;;;;;;;5068254;28;20028;-59
2022/06/13 07:17:15;;;;;;;14.63;6.10;;;;;;;;;;5068272;28;20040;-60
2022/06/13 07:19:44;;;;;;;15.13;6.00;;;;;;;;;;5067918;28;20036;-59
2022/06/13 07:22:17;;;;;;;15.30;6.33;;;;;;;;;;5066582;28;20039;-59
2022/06/13 07:24:43;;;;;;;15.98;6.13;;;;;;;;;;5065656;28;20406;-60
2022/06/13 07:27:09;;;;;;;12.77;5.70;;;;;;;;;;5066865;28;20033;-59
2022/06/13 07:29:35;;;;;;;10.77;5.85;;;;;;;;;;5066562;28;20028;-59
2022/06/13 07:32:08;;;;;;;12.40;6.10;;;;;;;;;;5065871;28;20031;-59
2022/06/13 07:34:35;;;;;;;14.25;6.05;;;;;;;;;;5062972;28;20079;-59
2022/06/13 07:37:03;;;;;;;13.20;5.75;;;;;;;;;;5064660;28;20029;-59
2022/06/13 07:39:28;;;;;;;12.38;5.63;;;;;;;;;;5064968;28;20028;-59
2022/06/13 07:41:54;;;;;;;16.30;5.85;;;;;;;;;;5061746;28;20047;-60
2022/06/13 07:44:27;;;;;;;10.55;5.30;;;;;;;;;;5059818;28;20037;-59
2022/06/13 07:46:53;;;;;;;14.10;5.72;;;;;;;;;;5055616;28;20028;-60
2022/06/13 07:49:20;;;;;;;11.05;5.82;;;;;;;;;;5063433;28;20127;-59
2022/06/13 07:51:46;;;;;;;11.20;5.72;;;;;;;;;;5061692;28;20520;-60
2022/06/13 07:54:12;;;;;;;16.58;5.78;;;;;;;;;;5065396;28;20105;-60
2022/06/13 07:56:39;;;;;;;12.50;5.43;;;;;;;;;;5063008;28;20025;-60
2022/06/13 07:59:06;;;;;;;15.38;6.68;;;;;;;;;;5061511;28;20111;-59
2022/06/13 08:01:32;;;;;;;14.93;5.43;;;;;;;;;;5061072;28;20024;-59
2022/06/13 08:03:58;;;;;;;11.98;5.15;;;;;;;;;;5068911;28;20159;-60
2022/06/13 08:06:25;;;;;;;10.57;5.15;;;;;;;;;;5068367;28;20025;-60
2022/06/13 08:08:51;;;;;;;12.43;4.97;;;;;;;;;;5068815;28;20107;-61
2022/06/13 08:11:30;;;;;;;9.88;5.10;;;;;;;;;;5068467;28;20111;-59
2022/06/13 08:13:56;;;;;;;14.27;5.47;;;;;;;;;;5059961;28;20062;-60
2022/06/13 08:16:22;;;;;;;13.60;5.63;;;;;;;;;;5067893;28;20111;-59
2022/06/13 08:18:47;;;;;;;13.98;5.88;;;;;;;;;;5065911;28;20090;-59
2022/06/13 08:21:13;;;;;;;16.75;5.43;;;;;;;;;;5071031;28;20033;-59
2022/06/13 08:23:39;;;;;;;12.02;4.82;;;;;;;;;;5068760;28;20354;-59
2022/06/13 08:26:04;;;;;;;11.57;5.07;;;;;;;;;;5069580;28;20547;-58
2022/06/13 08:28:30;;;;;;;11.30;5.22;;;;;;;;;;5069637;28;20016;-60
2022/06/13 08:31:01;;;;;;;15.57;5.38;;;;;;;;;;5069158;28;20031;-59
2022/06/13 08:33:27;;;;;;;11.95;5.15;;;;;;;;;;5065866;28;20449;-58
2022/06/13 08:35:54;;;;;;;11.02;5.38;;;;;;;;;;5067774;28;20100;-58
2022/06/13 08:38:20;;;;;;;12.52;5.40;;;;;;;;;;5067320;28;20029;-60
2022/06/13 08:40:52;;;;;;;13.10;6.22;;;;;;;;;;5067506;28;20017;-59
2022/06/13 08:43:42;;;;;;;11.40;5.28;;;;;;;;;;5063691;28;20037;-59
2022/06/13 08:46:19;;;;;;;14.20;5.68;;;;;;;;;;5064235;28;20017;-59
2022/06/13 08:48:45;;;;;;;15.77;5.32;;;;;;;;;;5065743;28;20032;-60
2022/06/13 08:51:13;;;;;;;9.93;4.55;;;;;;;;;;5061102;28;20031;-58
2022/06/13 08:53:56;;;;;;;8.27;4.32;;;;;;;;;;5064195;28;20094;-60
2022/06/13 08:56:26;;;;;;;9.63;5.50;;;;;;;;;;5063608;28;20032;-60
2022/06/13 08:59:34;;;;;;;11.30;5.38;;;;;;;;;;5061252;28;20044;-60
2022/06/13 09:02:11;;;;;;;8.07;4.93;;;;;;;;;;5063253;28;20487;-60
2022/06/13 09:04:51;;;;;;;15.50;6.20;;;;;;;;;;5072165;28;20375;-60
2022/06/13 09:07:45;;;;;;;14.05;5.35;;;;;;;;;;5067313;28;20078;-58
2022/06/13 09:10:20;;;;;;;10.60;4.82;;;;;;;;;;5071597;28;20024;-59
2022/06/13 09:12:52;;;;;;;12.23;5.05;;;;;;;;;;5069322;28;20030;-60
2022/06/13 09:15:30;;;;;;;9.23;4.78;;;;;;;;;;5070012;28;20116;-60
2022/06/13 09:18:17;;;;;;;9.77;4.40;;;;;;;;;;5070109;28;20028;-59
2022/06/13 09:21:01;;;;;;;12.52;5.03;;;;;;;;;;5067576;28;20020;-60
2022/06/13 09:23:48;;;;;;;13.50;5.35;;;;;;;;;;5069385;28;20115;-60
2022/06/13 09:26:24;;;;;;;10.40;4.70;;;;;;;;;;5067258;28;20028;-59
2022/06/13 09:28:55;;;;;;;12.57;4.57;;;;;;;;;;5067966;28;20455;-59
2022/06/13 09:31:27;;;;;;;12.60;5.05;;;;;;;;;;5065932;28;20198;-59
2022/06/13 09:33:57;;;;;;;9.25;4.78;;;;;;;;;;5067755;28;20032;-60
2022/06/13 09:36:30;;;;;;;10.07;4.90;;;;;;;;;;5064876;28;20028;-59
2022/06/13 09:39:02;;;;;;;7.90;5.07;;;;;;;;;;5064228;28;20024;-60
2022/06/13 09:41:52;;;;;;;9.98;4.63;;;;;;;;;;5065445;28;20067;-60
2022/06/13 09:44:42;;;;;;;11.93;4.80;;;;;;;;;;5062120;28;20476;-59
2022/06/13 09:47:29;;;;;;;11.43;5.43;;;;;;;;;;5059673;28;20028;-59
2022/06/13 09:50:15;;;;;;;14.25;4.78;;;;;;;;;;5061318;28;20070;-59
2022/06/13 09:53:15;;;;;;;12.38;4.40;;;;;;;;;;5062426;28;20025;-59
2022/06/13 09:55:52;;;;;;;10.90;4.32;;;;;;;;;;5061507;28;20032;-59
2022/06/13 09:58:40;;;;;;;9.30;4.13;;;;;;;;;;5060034;28;20522;-58
2022/06/13 10:01:19;;;;;;;11.05;4.15;;;;;;;;;;5065807;28;20025;-59
2022/06/13 10:03:50;;;;;;;15.98;5.22;;;;;;;;;;5069992;28;20138;-59
2022/06/13 10:06:26;;;;;;;8.75;3.97;;;;;;;;;;5069834;28;20102;-58
2022/06/13 10:08:54;;;;;;;8.43;4.05;;;;;;;;;;5070421;28;20024;-59
2022/06/13 10:11:42;;;;;;;11.00;5.22;;;;;;;;;;5068832;28;20032;-59
2022/06/13 10:14:07;;;;;;;14.60;4.55;;;;;;;;;;5061884;28;20506;-58
2022/06/13 10:16:39;;;;;;;12.38;4.55;;;;;;;;;;5068700;28;20044;-59
2022/06/13 10:19:28;;;;;;;11.65;4.57;;;;;;;;;;5069651;28;20530;-59
2022/06/13 10:22:03;;;;;;;8.35;3.90;;;;;;;;;;5056591;28;20028;-59
2022/06/13 10:24:49;;;;;;;9.13;3.92;;;;;;;;;;5067166;28;20036;-60
2022/06/13 10:27:30;;;;;;;13.25;4.93;;;;;;;;;;5067355;28;20036;-61
2022/06/13 10:30:19;;;;;;;10.15;3.88;;;;;;;;;;5058093;28;20107;-59
2022/06/13 10:32:48;;;;;;;;;;;;;;;;;;5064911;28;20032;-59
2022/06/13 10:35:39;;;;;;;8.65;4.38;;;;;;;;;;5061487;28;19908;-59
2022/06/13 10:38:25;;;;;;;12.30;4.22;;;;;;;;;;5059375;28;20448;-59
2022/06/13 10:40:51;;;;;;;8.77;4.28;;;;;;;;;;5062589;28;20028;-59
2022/06/13 10:43:18;;;;;;;7.45;3.90;;;;;;;;;;5064695;28;20028;-59
2022/06/13 10:45:44;;;;;;;5.65;3.55;;;;;;;;;;5062657;28;20029;-60
2022/06/13 10:48:18;;;;;;;8.15;3.60;;;;;;;;;;5063794;28;20104;-58
2022/06/13 10:50:45;;;;;;;6.53;3.20;;;;;;;;;;5061462;28;20036;-59
2022/06/13 10:53:19;;;;;;;10.85;3.00;;;;;;;;;;5058719;28;20036;-60
2022/06/13 10:55:46;;;;;;;6.45;2.63;;;;;;;;;;5061058;28;20159;-60
2022/06/13 10:58:21;;;;;;;9.57;3.10;;;;;;;;;;5062244;28;20033;-60
2022/06/13 11:01:08;;;;;;;7.75;3.35;;;;;;;;;;5068757;28;20021;-59
2022/06/13 11:03:34;;;;;;;7.28;2.95;;;;;;;;;;5069421;28;20055;-61
2022/06/13 11:06:13;;;;;;;7.35;3.60;;;;;;;;;;5068554;28;20496;-60
2022/06/13 11:08:40;;;;;;;8.65;3.70;;;;;;;;;;5067713;28;20033;-61
2022/06/13 11:11:16;;;;;;;11.63;3.80;;;;;;;;;;5067805;28;20558;-60
2022/06/13 11:13:51;;;;;;;6.13;3.15;;;;;;;;;;5069689;28;20021;-60
2022/06/13 11:22:37;;;;;;;10.30;3.67;;;;;;;;;;5025836;28;20477;-59
2022/06/13 11:25:16;;;;;;;8.18;3.50;;;;;;;;;;5055537;28;20032;-60
2022/06/13 11:27:42;;;;;;;8.02;3.47;;;;;;;;;;5066117;28;20029;-60
2022/06/13 11:30:19;;;;;;;8.10;3.10;;;;;;;;;;5064745;28;20106;-60
2022/06/13 11:33:15;;;;;;;6.47;3.10;;;;;;;;;;5063812;28;20024;-60
2022/06/13 11:36:01;;;;;;;6.93;3.20;;;;;;;;;;5064106;28;20031;-60
2022/06/13 11:38:36;;;;;;;5.53;2.95;;;;;;;;;;5053324;28;20511;-60
2022/06/13 11:41:18;;;;;;;9.35;3.10;;;;;;;;;;5063326;28;20025;-60
2022/06/13 11:44:05;;;;;;;7.50;3.00;;;;;;;;;;5063923;28;20082;-60
2022/06/13 11:46:35;;;;;;;5.32;2.90;;;;;;;;;;5060668;28;20055;-59
2022/06/13 11:49:21;;;;;;;6.38;3.05;;;;;;;;;;5063208;28;20454;-59
2022/06/13 11:52:11;;;;;;;4.20;2.83;;;;;;;;;;5058509;28;20387;-59
2022/06/13 11:54:48;;;;;;;7.47;3.08;;;;;;;;;;5061765;28;20087;-61
2022/06/13 11:57:14;;;;;;;6.93;2.97;;;;;;;;;;5065796;28;20073;-59
2022/06/13 11:59:51;;;;;;;10.13;3.35;;;;;;;;;;5074474;28;20032;-60
2022/06/13 12:02:45;;;;;;;8.02;2.95;;;;;;;;;;5072387;28;20048;-60
2022/06/13 12:05:13;;;;;;;7.78;2.75;;;;;;;;;;5069826;28;20487;-59
2022/06/13 12:07:50;;;;;;;7.10;2.83;;;;;;;;;;5071309;28;20294;-60
2022/06/13 12:10:25;;;;;;;13.80;3.10;;;;;;;;;;5072083;28;20024;-60
2022/06/13 12:12:50;;;;;;;7.85;2.50;;;;;;;;;;5065869;28;20035;-60
2022/06/13 12:15:16;;;;;;;6.75;2.72;;;;;;;;;;5070161;28;20371;-59
2022/06/13 12:17:52;;;;;;;6.28;2.50;;;;;;;;;;5069487;28;20033;-60
2022/06/13 12:20:27;;;;;;;6.15;2.60;;;;;;;;;;5069807;28;20427;-60
2022/06/13 12:23:01;;;;;;;11.82;3.30;;;;;;;;;;5069769;28;20033;-59
2022/06/13 12:25:48;;;;;;;8.43;3.05;;;;;;;;;;5065499;28;20079;-61
2022/06/13 12:28:17;;;;;;;6.50;2.47;;;;;;;;;;5069041;28;20181;-60
2022/06/13 12:31:08;;;;;;;5.45;2.63;;;;;;;;;;5068208;28;20099;-60
2022/06/13 12:34:02;;;;;;;7.10;2.80;;;;;;;;;;5065704;28;20032;-60
2022/06/13 12:36:36;;;;;;;7.40;3.05;;;;;;;;;;5072689;28;20405;-62
2022/06/13 12:39:32;;;;;;;7.28;2.78;;;;;;;;;;5063670;28;20036;-61
2022/06/13 12:42:16;;;;;;;7.97;2.70;;;;;;;;;;5058933;28;20032;-59
2022/06/13 12:44:47;;;;;;;5.32;2.72;;;;;;;;;;5065809;28;20023;-61
2022/06/13 12:47:30;;;;;;;6.63;2.65;;;;;;;;;;5062798;28;20060;-60
2022/06/13 12:50:14;;;;;;;8.23;2.97;;;;;;;;;;5071519;28;20077;-60
2022/06/13 12:52:46;;;;;;;6.50;2.72;;;;;;;;;;5059876;28;20021;-61
2022/06/13 12:55:50;;;;;;;5.55;2.65;;;;;;;;;;5062532;28;20128;-60
2022/06/13 12:58:31;;;;;;;4.35;2.50;;;;;;;;;;5068923;28;20100;-60
2022/06/13 13:01:02;;;;;;;6.53;3.15;;;;;;;;;;5064082;28;20020;-60
2022/06/13 13:03:46;;;;;;;4.68;2.35;;;;;;;;;;5071399;28;20032;-59
2022/06/13 13:06:37;;;;;;;4.93;2.50;;;;;;;;;;5071316;28;20036;-62
2022/06/13 13:09:37;;;;;;;8.48;3.25;;;;;;;;;;5053688;28;20039;-59
2022/06/13 13:12:24;;;;;;;7.43;2.97;;;;;;;;;;5070395;28;20050;-60
2022/06/13 13:15:01;;;;;;;7.70;2.65;;;;;;;;;;5070093;28;20177;-60
2022/06/13 13:18:00;;;;;;;5.15;2.70;;;;;;;;;;5069596;28;20074;-59
2022/06/13 13:20:31;;;;;;;7.68;2.92;;;;;;;;;;5065321;28;20395;-60
2022/06/13 13:23:19;;;;;;;5.53;3.10;;;;;;;;;;5068197;28;20422;-61
2022/06/13 13:26:10;;;;;;;5.23;2.53;;;;;;;;;;5068088;28;20031;-61
2022/06/13 13:28:48;;;;;;;4.95;2.53;;;;;;;;;;5065932;28;20263;-61
2022/06/13 13:31:31;;;;;;;3.55;2.38;;;;;;;;;;5066716;28;20475;-60
2022/06/13 13:34:02;;;;;;;4.88;2.65;;;;;;;;;;5066357;28;20032;-60
2022/06/13 13:36:49;;;;;;;7.13;2.63;;;;;;;;;;5062911;28;20103;-60
2022/06/13 13:39:18;;;;;;;5.97;2.80;;;;;;;;;;5066274;28;20056;-61
2022/06/13 13:41:53;;;;;;;4.47;2.80;;;;;;;;;;5064835;28;20017;-61
2022/06/13 13:44:25;;;;;;;5.22;2.80;;;;;;;;;;5062923;28;20056;-61
2022/06/13 13:47:11;;;;;;;3.95;2.45;;;;;;;;;;5056732;28;20028;-61
2022/06/13 13:50:08;;;;;;;9.80;2.83;;;;;;;;;;5063040;28;20059;-61
2022/06/13 13:52:40;;;;;;;5.60;2.65;;;;;;;;;;5052355;28;20083;-60
2022/06/13 13:55:14;;;;;;;6.88;2.75;;;;;;;;;;5063197;28;20432;-61
2022/06/13 13:57:46;;;;;;;4.63;2.60;;;;;;;;;;5072250;28;20040;-60
2022/06/13 14:00:24;;;;;;;5.55;3.08;;;;;;;;;;5071011;28;20028;-60
2022/06/13 14:03:23;;;;;;;8.13;3.13;;;;;;;;;;5069973;28;20030;-60
2022/06/13 14:05:54;;;;;;;7.70;2.70;;;;;;;;;;5069015;28;20077;-60
2022/06/13 14:08:22;;;;;;;4.93;3.13;;;;;;;;;;5065449;28;20027;-61
2022/06/13 14:10:51;;;;;;;7.90;2.90;;;;;;;;;;5068613;28;20021;-59
2022/06/13 14:13:16;;;;;;;4.82;2.70;;;;;;;;;;5068819;28;20040;-59
2022/06/13 14:15:50;;;;;;;9.65;3.13;;;;;;;;;;5067099;28;20409;-59
2022/06/13 14:18:18;;;;;;;4.57;2.80;;;;;;;;;;5067748;28;20025;-60
2022/06/13 14:20:44;;;;;;;5.50;2.90;;;;;;;;;;5066813;28;20028;-60
2022/06/13 14:23:09;;;;;;;7.90;2.95;;;;;;;;;;5067090;28;20205;-60
2022/06/13 14:25:41;;;;;;;6.70;2.80;;;;;;;;;;5064494;28;20717;-60
2022/06/13 14:28:16;;;;;;;8.18;2.90;;;;;;;;;;5066844;28;20031;-59
2022/06/13 14:31:06;;;;;;;5.68;3.50;;;;;;;;;;5065531;28;20103;-60
2022/06/13 14:36:53;;;;;;;5.18;2.83;;;;;;;;;;5065022;28;20055;-61
2022/06/13 14:39:30;;;;;;;6.72;2.60;;;;;;;;;;5062101;28;20662;-60
2022/06/13 14:42:13;;;;;;;6.90;3.10;;;;;;;;;;5056468;28;20055;-60
2022/06/13 14:44:56;;;;;;;7.32;2.80;;;;;;;;;;5064782;28;20062;-61
2022/06/13 14:47:43;;;;;;;6.43;2.85;;;;;;;;;;5064930;28;20025;-61
2022/06/13 14:50:09;;;;;;;5.07;2.55;;;;;;;;;;5061902;28;20214;-60
2022/06/13 14:52:35;;;;;;;5.43;2.53;;;;;;;;;;5061131;28;20024;-58
2022/06/13 14:55:03;;;;;;;6.25;2.80;;;;;;;;;;5063764;28;20021;-60
2022/06/13 14:57:29;;;;;;;4.90;2.58;;;;;;;;;;5070287;28;20021;-60
2022/06/13 15:00:04;;;;;;;5.60;2.45;;;;;;;;;;5070023;28;20027;-61
2022/06/13 15:02:50;;;;;;;4.20;2.53;;;;;;;;;;5068743;28;20110;-60
2022/06/13 15:05:16;;;;;;;6.95;2.50;;;;;;;;;;5068134;28;20037;-61
2022/06/13 15:08:01;;;;;;;5.90;2.47;;;;;;;;;;5068663;28;20021;-60
2022/06/13 15:10:36;;;;;;;5.45;2.75;;;;;;;;;;5067220;28;20052;-61
2022/06/13 15:13:04;;;;;;;5.28;2.10;;;;;;;;;;5067292;28;20028;-61
2022/06/13 15:15:35;;;;;;;4.40;2.50;;;;;;;;;;5067014;28;20052;-60
2022/06/13 15:18:02;;;;;;;5.55;2.20;;;;;;;;;;5067028;28;20111;-60
2022/06/13 15:20:32;;;;;;;4.13;2.40;;;;;;;;;;5065876;28;20053;-60
2022/06/13 15:23:11;;;;;;;4.35;2.17;;;;;;;;;;5064146;28;20115;-60
2022/06/13 15:25:36;;;;;;;4.00;2.00;;;;;;;;;;5063683;28;20059;-59
2022/06/13 15:28:03;;;;;;;5.28;2.13;;;;;;;;;;5064991;28;20028;-61
2022/06/13 15:30:33;;;;;;;6.13;2.97;;;;;;;;;;5061954;28;20029;-60
2022/06/13 15:33:03;;;;;;;9.43;3.42;;;;;;;;;;5064232;28;20029;-60
2022/06/13 15:35:45;;;;;;;7.88;2.90;;;;;;;;;;5063650;28;20051;-59
2022/06/13 15:38:13;;;;;;;6.28;2.70;;;;;;;;;;5060598;28;20025;-59
2022/06/13 15:40:40;;;;;;;5.65;2.78;;;;;;;;;;5062219;28;20029;-61